sensor_id;sensor_type;location;lat;lon;timestamp;pressure;altitude;pressure_sealevel;temperature;humidity
5296;BME280;2670;42.720;23.336;2022-07-17T00:00:19;-23088.03;;;22.31;nan
5296;BME280;2670;42.720;23.336;2022-07-17T00:02:46;-23088.59;;;22.33;nan
5296;BME280;2670;42.720;23.336;2022-07-17T00:05:14;-23090.22;;;22.39;nan
5296;BME280;2670;42.720;23.336;2022-07-17T00:07:41;-23086.84;;;22.27;nan
5296;BME280;2670;42.720;23.336;2022-07-17T00:10:09;-23082.19;;;22.11;nan
5296;BME280;2670;42.720;23.336;2022-07-17T00:12:36;-23080.13;;;22.04;nan
5296;BME280;2670;42.720;23.336;2022-07-17T00:15:03;-23083.19;;;22.15;nan
5296;BME280;2670;42.720;23.336;2022-07-17T00:17:30;-23082.91;;;22.13;nan
5296;BME280;2670;42.720;23.336;2022-07-17T00:19:56;-23082.63;;;22.12;nan
5296;BME280;2670;42.720;23.336;2022-07-17T00:22:23;-23082.78;;;22.13;nan
5296;BME280;2670;42.720;23.336;2022-07-17T00:24:50;-23084.50;;;22.19;nan
5296;BME280;2670;42.720;23.336;2022-07-17T00:27:18;-23087.28;;;22.29;nan
5296;BME280;2670;42.720;23.336;2022-07-17T00:29:45;-23084.97;;;22.21;nan
5296;BME280;2670;42.720;23.336;2022-07-17T00:32:11;-23082.78;;;22.13;nan
5296;BME280;2670;42.720;23.336;2022-07-17T00:34:38;-23083.94;;;22.17;nan
5296;BME280;2670;42.720;23.336;2022-07-17T00:37:05;-23085.69;;;22.23;nan
5296;BME280;2670;42.720;23.336;2022-07-17T00:39:31;-23084.09;;;22.18;nan
5296;BME280;2670;42.720;23.336;2022-07-17T00:41:58;-23083.06;;;22.14;nan
5296;BME280;2670;42.720;23.336;2022-07-17T00:44:27;-23084.81;;;22.20;nan
5296;BME280;2670;42.720;23.336;2022-07-17T00:46:54;-23082.19;;;22.11;nan
5296;BME280;2670;42.720;23.336;2022-07-17T00:49:20;-23087.72;;;22.30;nan
5296;BME280;2670;42.720;23.336;2022-07-17T00:51:47;-23086.72;;;22.27;nan
5296;BME280;2670;42.720;23.336;2022-07-17T00:54:15;-23087.44;;;22.29;nan
5296;BME280;2670;42.720;23.336;2022-07-17T00:56:46;-23085.69;;;22.23;nan
5296;BME280;2670;42.720;23.336;2022-07-17T00:59:14;-23082.63;;;22.12;nan
5296;BME280;2670;42.720;23.336;2022-07-17T01:01:43;-23082.19;;;22.11;nan
5296;BME280;2670;42.720;23.336;2022-07-17T01:04:09;-23084.81;;;22.20;nan
5296;BME280;2670;42.720;23.336;2022-07-17T01:06:36;-23086.13;;;22.25;nan
5296;BME280;2670;42.720;23.336;2022-07-17T01:09:03;-23082.47;;;22.12;nan
5296;BME280;2670;42.720;23.336;2022-07-17T01:11:29;-23082.63;;;22.12;nan
5296;BME280;2670;42.720;23.336;2022-07-17T01:13:57;-23082.91;;;22.13;nan
5296;BME280;2670;42.720;23.336;2022-07-17T01:16:24;-23083.19;;;22.15;nan
5296;BME280;2670;42.720;23.336;2022-07-17T01:18:53;-23082.78;;;22.13;nan
5296;BME280;2670;42.720;23.336;2022-07-17T01:21:21;-23081.88;;;22.10;nan
5296;BME280;2670;42.720;23.336;2022-07-17T01:23:48;-23082.78;;;22.13;nan
5296;BME280;2670;42.720;23.336;2022-07-17T01:26:15;-23081.75;;;22.09;nan
5296;BME280;2670;42.720;23.336;2022-07-17T01:28:41;-23084.50;;;22.19;nan
5296;BME280;2670;42.720;23.336;2022-07-17T01:31:08;-23082.47;;;22.12;nan
5296;BME280;2670;42.720;23.336;2022-07-17T01:33:35;-23081.16;;;22.07;nan
5296;BME280;2670;42.720;23.336;2022-07-17T01:36:01;-23080.00;;;22.03;nan
5296;BME280;2670;42.720;23.336;2022-07-17T01:38:29;-23079.41;;;22.01;nan
5296;BME280;2670;42.720;23.336;2022-07-17T01:40:56;-23078.69;;;21.99;nan
5296;BME280;2670;42.720;23.336;2022-07-17T01:43:23;-23077.06;;;21.93;nan
5296;BME280;2670;42.720;23.336;2022-07-17T01:45:50;-23077.34;;;21.94;nan
5296;BME280;2670;42.720;23.336;2022-07-17T01:48:24;-23078.81;;;21.99;nan
5296;BME280;2670;42.720;23.336;2022-07-17T01:50:51;-23077.50;;;21.95;nan
5296;BME280;2670;42.720;23.336;2022-07-17T01:53:17;-23075.75;;;21.88;nan
5296;BME280;2670;42.720;23.336;2022-07-17T01:55:45;-23075.59;;;21.88;nan
5296;BME280;2670;42.720;23.336;2022-07-17T01:58:12;-23075.91;;;21.89;nan
5296;BME280;2670;42.720;23.336;2022-07-17T02:00:39;-23076.34;;;21.91;nan
5296;BME280;2670;42.720;23.336;2022-07-17T02:03:06;-23076.03;;;21.89;nan
5296;BME280;2670;42.720;23.336;2022-07-17T02:05:33;-23074.59;;;21.84;nan
5296;BME280;2670;42.720;23.336;2022-07-17T02:08:00;-23074.72;;;21.85;nan
5296;BME280;2670;42.720;23.336;2022-07-17T02:10:27;-23072.09;;;21.76;nan
5296;BME280;2670;42.720;23.336;2022-07-17T02:12:55;-23072.41;;;21.77;nan
5296;BME280;2670;42.720;23.336;2022-07-17T02:17:49;-23070.19;;;21.69;nan
5296;BME280;2670;42.720;23.336;2022-07-17T02:20:16;-23068.31;;;21.62;nan
5296;BME280;2670;42.720;23.336;2022-07-17T02:22:43;-23067.88;;;21.61;nan
5296;BME280;2670;42.720;23.336;2022-07-17T02:25:10;-23066.25;;;21.55;nan
5296;BME280;2670;42.720;23.336;2022-07-17T02:27:41;-23068.16;;;21.62;nan
5296;BME280;2670;42.720;23.336;2022-07-17T02:30:11;-23064.06;;;21.48;nan
5296;BME280;2670;42.720;23.336;2022-07-17T02:32:40;-23062.31;;;21.42;nan
5296;BME280;2670;42.720;23.336;2022-07-17T02:35:08;-23061.44;;;21.38;nan
5296;BME280;2670;42.720;23.336;2022-07-17T02:37:35;-23060.72;;;21.36;nan
5296;BME280;2670;42.720;23.336;2022-07-17T02:40:03;-23059.09;;;21.30;nan
5296;BME280;2670;42.720;23.336;2022-07-17T02:42:30;-23057.50;;;21.25;nan
5296;BME280;2670;42.720;23.336;2022-07-17T02:44:58;-23055.00;;;21.16;nan
5296;BME280;2670;42.720;23.336;2022-07-17T02:47:28;-23054.56;;;21.14;nan
5296;BME280;2670;42.720;23.336;2022-07-17T02:49:56;-23056.19;;;21.20;nan
5296;BME280;2670;42.720;23.336;2022-07-17T02:52:23;-23057.50;;;21.25;nan
5296;BME280;2670;42.720;23.336;2022-07-17T02:54:49;-23053.84;;;21.12;nan
5296;BME280;2670;42.720;23.336;2022-07-17T02:57:16;-23059.97;;;21.33;nan
5296;BME280;2670;42.720;23.336;2022-07-17T02:59:44;-23055.72;;;21.19;nan
5296;BME280;2670;42.720;23.336;2022-07-17T03:02:11;-23052.81;;;21.08;nan
5296;BME280;2670;42.720;23.336;2022-07-17T03:04:39;-23052.38;;;21.07;nan
5296;BME280;2670;42.720;23.336;2022-07-17T03:07:05;-23051.34;;;21.03;nan
5296;BME280;2670;42.720;23.336;2022-07-17T03:09:32;-23052.53;;;21.07;nan
5296;BME280;2670;42.720;23.336;2022-07-17T03:11:59;-23050.47;;;21.00;nan
5296;BME280;2670;42.720;23.336;2022-07-17T03:14:26;-23051.66;;;21.04;nan
5296;BME280;2670;42.720;23.336;2022-07-17T03:16:53;-23054.88;;;21.16;nan
5296;BME280;2670;42.720;23.336;2022-07-17T03:19:19;-23051.66;;;21.04;nan
5296;BME280;2670;42.720;23.336;2022-07-17T03:21:47;-23052.81;;;21.08;nan
5296;BME280;2670;42.720;23.336;2022-07-17T03:24:14;-23050.31;;;21.00;nan
5296;BME280;2670;42.720;23.336;2022-07-17T03:26:41;-23050.03;;;20.99;nan
5296;BME280;2670;42.720;23.336;2022-07-17T03:29:08;-23048.72;;;20.94;nan
5296;BME280;2670;42.720;23.336;2022-07-17T03:31:34;-23047.41;;;20.89;nan
5296;BME280;2670;42.720;23.336;2022-07-17T03:34:01;-23050.75;;;21.01;nan
5296;BME280;2670;42.720;23.336;2022-07-17T03:36:28;-23049.75;;;20.98;nan
5296;BME280;2670;42.720;23.336;2022-07-17T03:38:56;-23051.06;;;21.02;nan
5296;BME280;2670;42.720;23.336;2022-07-17T03:41:22;-23051.94;;;21.05;nan
5296;BME280;2670;42.720;23.336;2022-07-17T03:43:49;-23050.75;;;21.01;nan
5296;BME280;2670;42.720;23.336;2022-07-17T03:46:16;-23050.91;;;21.02;nan
5296;BME280;2670;42.720;23.336;2022-07-17T03:48:43;-23052.09;;;21.06;nan
5296;BME280;2670;42.720;23.336;2022-07-17T03:51:09;-23051.34;;;21.03;nan
5296;BME280;2670;42.720;23.336;2022-07-17T03:53:36;-23053.53;;;21.11;nan
5296;BME280;2670;42.720;23.336;2022-07-17T03:56:05;-23053.69;;;21.11;nan
5296;BME280;2670;42.720;23.336;2022-07-17T03:58:32;-23052.81;;;21.08;nan
5296;BME280;2670;42.720;23.336;2022-07-17T04:00:59;-23048.56;;;20.94;nan
5296;BME280;2670;42.720;23.336;2022-07-17T04:03:26;-23046.09;;;20.85;nan
5296;BME280;2670;42.720;23.336;2022-07-17T04:05:52;-23042.88;;;20.74;nan
5296;BME280;2670;42.720;23.336;2022-07-17T04:08:19;-23045.78;;;20.84;nan
5296;BME280;2670;42.720;23.336;2022-07-17T04:10:46;-23046.81;;;20.87;nan
5296;BME280;2670;42.720;23.336;2022-07-17T04:13:14;-23049.16;;;20.96;nan
5296;BME280;2670;42.720;23.336;2022-07-17T04:15:41;-23051.34;;;21.03;nan
5296;BME280;2670;42.720;23.336;2022-07-17T04:18:18;-23052.09;;;21.06;nan
5296;BME280;2670;42.720;23.336;2022-07-17T04:20:45;-23050.91;;;21.02;nan
5296;BME280;2670;42.720;23.336;2022-07-17T04:23:12;-23051.22;;;21.03;nan
5296;BME280;2670;42.720;23.336;2022-07-17T04:25:39;-23043.91;;;20.77;nan
5296;BME280;2670;42.720;23.336;2022-07-17T04:28:06;-23049.31;;;20.96;nan
5296;BME280;2670;42.720;23.336;2022-07-17T04:30:34;-23052.38;;;21.07;nan
5296;BME280;2670;42.720;23.336;2022-07-17T04:33:01;-23052.97;;;21.09;nan
5296;BME280;2670;42.720;23.336;2022-07-17T04:35:28;-23052.22;;;21.06;nan
5296;BME280;2670;42.720;23.336;2022-07-17T04:37:55;-23055.16;;;21.17;nan
5296;BME280;2670;42.720;23.336;2022-07-17T04:40:22;-23052.53;;;21.07;nan
5296;BME280;2670;42.720;23.336;2022-07-17T04:42:49;-23051.34;;;21.03;nan
5296;BME280;2670;42.720;23.336;2022-07-17T04:45:16;-23051.78;;;21.05;nan
5296;BME280;2670;42.720;23.336;2022-07-17T04:47:44;-23055.72;;;21.19;nan
5296;BME280;2670;42.720;23.336;2022-07-17T04:50:10;-23055.88;;;21.19;nan
5296;BME280;2670;42.720;23.336;2022-07-17T04:52:37;-23056.03;;;21.20;nan
5296;BME280;2670;42.720;23.336;2022-07-17T04:55:04;-23055.28;;;21.17;nan
5296;BME280;2670;42.720;23.336;2022-07-17T04:57:31;-23054.72;;;21.15;nan
5296;BME280;2670;42.720;23.336;2022-07-17T04:59:58;-23058.81;;;21.29;nan
5296;BME280;2670;42.720;23.336;2022-07-17T05:02:25;-23059.69;;;21.32;nan
5296;BME280;2670;42.720;23.336;2022-07-17T05:04:53;-23060.72;;;21.36;nan
5296;BME280;2670;42.720;23.336;2022-07-17T05:07:19;-23063.50;;;21.46;nan
5296;BME280;2670;42.720;23.336;2022-07-17T05:09:46;-23066.13;;;21.55;nan
5296;BME280;2670;42.720;23.336;2022-07-17T05:12:13;-23068.59;;;21.63;nan
5296;BME280;2670;42.720;23.336;2022-07-17T05:14:40;-23069.63;;;21.67;nan
5296;BME280;2670;42.720;23.336;2022-07-17T05:17:06;-23071.53;;;21.74;nan
5296;BME280;2670;42.720;23.336;2022-07-17T05:19:33;-23076.03;;;21.89;nan
5296;BME280;2670;42.720;23.336;2022-07-17T05:22:02;-23078.53;;;21.98;nan
5296;BME280;2670;42.720;23.336;2022-07-17T05:24:29;-23080.28;;;22.04;nan
5296;BME280;2670;42.720;23.336;2022-07-17T05:26:56;-23079.56;;;22.02;nan
5296;BME280;2670;42.720;23.336;2022-07-17T05:29:23;-23080.72;;;22.06;nan
5296;BME280;2670;42.720;23.336;2022-07-17T05:31:50;-23079.41;;;22.01;nan
5296;BME280;2670;42.720;23.336;2022-07-17T05:34:16;-23082.19;;;22.11;nan
5296;BME280;2670;42.720;23.336;2022-07-17T05:36:43;-23081.31;;;22.08;nan
5296;BME280;2670;42.720;23.336;2022-07-17T05:39:12;-23084.97;;;22.21;nan
5296;BME280;2670;42.720;23.336;2022-07-17T05:41:39;-23088.03;;;22.31;nan
5296;BME280;2670;42.720;23.336;2022-07-17T05:44:06;-23086.41;;;22.26;nan
5296;BME280;2670;42.720;23.336;2022-07-17T05:46:33;-23085.97;;;22.24;nan
5296;BME280;2670;42.720;23.336;2022-07-17T05:49:00;-23087.88;;;22.31;nan
5296;BME280;2670;42.720;23.336;2022-07-17T05:51:27;-23088.75;;;22.34;nan
5296;BME280;2670;42.720;23.336;2022-07-17T05:53:53;-23093.56;;;22.51;nan
5296;BME280;2670;42.720;23.336;2022-07-17T05:56:21;-23092.69;;;22.48;nan
5296;BME280;2670;42.720;23.336;2022-07-17T05:58:49;-23091.66;;;22.44;nan
5296;BME280;2670;42.720;23.336;2022-07-17T06:01:15;-23092.69;;;22.48;nan
5296;BME280;2670;42.720;23.336;2022-07-17T06:03:42;-23093.56;;;22.51;nan
5296;BME280;2670;42.720;23.336;2022-07-17T06:06:09;-23097.66;;;22.65;nan
5296;BME280;2670;42.720;23.336;2022-07-17T06:08:36;-23098.81;;;22.69;nan
5296;BME280;2670;42.720;23.336;2022-07-17T06:11:03;-23101.72;;;22.79;nan
5296;BME280;2670;42.720;23.336;2022-07-17T06:13:31;-23101.88;;;22.80;nan
5296;BME280;2670;42.720;23.336;2022-07-17T06:15:58;-23101.44;;;22.78;nan
5296;BME280;2670;42.720;23.336;2022-07-17T06:18:25;-23105.81;;;22.94;nan
5296;BME280;2670;42.720;23.336;2022-07-17T06:20:51;-23105.09;;;22.91;nan
5296;BME280;2670;42.720;23.336;2022-07-17T06:23:18;-23108.59;;;23.03;nan
5296;BME280;2670;42.720;23.336;2022-07-17T06:25:45;-23109.75;;;23.07;nan
5296;BME280;2670;42.720;23.336;2022-07-17T06:28:12;-23109.91;;;23.08;nan
5296;BME280;2670;42.720;23.336;2022-07-17T06:30:40;-23112.38;;;23.17;nan
5296;BME280;2670;42.720;23.336;2022-07-17T06:33:06;-23116.03;;;23.29;nan
5296;BME280;2670;42.720;23.336;2022-07-17T06:35:33;-23117.63;;;23.35;nan
5296;BME280;2670;42.720;23.336;2022-07-17T06:38:01;-23119.38;;;23.41;nan
5296;BME280;2670;42.720;23.336;2022-07-17T06:40:29;-23117.34;;;23.34;nan
5296;BME280;2670;42.720;23.336;2022-07-17T06:42:55;-23120.69;;;23.46;nan
5296;BME280;2670;42.720;23.336;2022-07-17T06:45:22;-23121.28;;;23.48;nan
5296;BME280;2670;42.720;23.336;2022-07-17T06:47:50;-23121.41;;;23.48;nan
5296;BME280;2670;42.720;23.336;2022-07-17T06:50:17;-23122.88;;;23.53;nan
5296;BME280;2670;42.720;23.336;2022-07-17T06:52:44;-23123.03;;;23.54;nan
5296;BME280;2670;42.720;23.336;2022-07-17T06:55:10;-23126.22;;;23.65;nan
5296;BME280;2670;42.720;23.336;2022-07-17T06:57:37;-23129.56;;;23.77;nan
5296;BME280;2670;42.720;23.336;2022-07-17T07:00:05;-23129.28;;;23.76;nan
5296;BME280;2670;42.720;23.336;2022-07-17T07:02:32;-23126.53;;;23.66;nan
5296;BME280;2670;42.720;23.336;2022-07-17T07:05:00;-23128.28;;;23.72;nan
5296;BME280;2670;42.720;23.336;2022-07-17T07:07:27;-23127.97;;;23.71;nan
5296;BME280;2670;42.720;23.336;2022-07-17T07:09:53;-23132.34;;;23.86;nan
5296;BME280;2670;42.720;23.336;2022-07-17T07:12:20;-23132.94;;;23.89;nan
5296;BME280;2670;42.720;23.336;2022-07-17T07:14:47;-23131.47;;;23.83;nan
5296;BME280;2670;42.720;23.336;2022-07-17T07:17:14;-23134.09;;;23.93;nan
5296;BME280;2670;42.720;23.336;2022-07-17T07:19:41;-23134.97;;;23.96;nan
5296;BME280;2670;42.720;23.336;2022-07-17T07:22:09;-23136.41;;;24.01;nan
5296;BME280;2670;42.720;23.336;2022-07-17T07:24:35;-23136.13;;;24.00;nan
5296;BME280;2670;42.720;23.336;2022-07-17T07:27:03;-23139.63;;;24.12;nan
5296;BME280;2670;42.720;23.336;2022-07-17T07:29:29;-23142.25;;;24.21;nan
5296;BME280;2670;42.720;23.336;2022-07-17T07:31:56;-23141.94;;;24.20;nan
5296;BME280;2670;42.720;23.336;2022-07-17T07:34:23;-23144.44;;;24.29;nan
5296;BME280;2670;42.720;23.336;2022-07-17T07:36:49;-23148.50;;;24.43;nan
5296;BME280;2670;42.720;23.336;2022-07-17T07:39:17;-23150.69;;;24.51;nan
5296;BME280;2670;42.720;23.336;2022-07-17T07:41:44;-23149.22;;;24.46;nan
5296;BME280;2670;42.720;23.336;2022-07-17T07:44:11;-23151.56;;;24.54;nan
5296;BME280;2670;42.720;23.336;2022-07-17T07:46:38;-23153.00;;;24.59;nan
5296;BME280;2670;42.720;23.336;2022-07-17T07:49:05;-23150.41;;;24.50;nan
5296;BME280;2670;42.720;23.336;2022-07-17T07:51:32;-23152.28;;;24.56;nan
5296;BME280;2670;42.720;23.336;2022-07-17T07:53:59;-23153.88;;;24.62;nan
5296;BME280;2670;42.720;23.336;2022-07-17T07:56:27;-23154.63;;;24.65;nan
5296;BME280;2670;42.720;23.336;2022-07-17T07:58:53;-23159.69;;;24.82;nan
5296;BME280;2670;42.720;23.336;2022-07-17T08:01:20;-23162.03;;;24.91;nan
5296;BME280;2670;42.720;23.336;2022-07-17T08:03:47;-23168.44;;;25.13;nan
5296;BME280;2670;42.720;23.336;2022-07-17T08:06:14;-23168.00;;;25.12;nan
5296;BME280;2670;42.720;23.336;2022-07-17T08:08:40;-23168.56;;;25.14;nan
5296;BME280;2670;42.720;23.336;2022-07-17T08:11:07;-23170.47;;;25.20;nan
5296;BME280;2670;42.720;23.336;2022-07-17T08:13:35;-23169.75;;;25.18;nan
5296;BME280;2670;42.720;23.336;2022-07-17T08:16:02;-23171.91;;;25.25;nan
5296;BME280;2670;42.720;23.336;2022-07-17T08:18:29;-23171.34;;;25.23;nan
5296;BME280;2670;42.720;23.336;2022-07-17T08:20:55;-23169.31;;;25.16;nan
5296;BME280;2670;42.720;23.336;2022-07-17T08:23:22;-23178.59;;;25.49;nan
5296;BME280;2670;42.720;23.336;2022-07-17T08:25:49;-23178.75;;;25.49;nan
5296;BME280;2670;42.720;23.336;2022-07-17T08:28:16;-23178.03;;;25.47;nan
5296;BME280;2670;42.720;23.336;2022-07-17T08:30:44;-23178.31;;;25.48;nan
5296;BME280;2670;42.720;23.336;2022-07-17T08:33:10;-23177.59;;;25.45;nan
5296;BME280;2670;42.720;23.336;2022-07-17T08:35:39;-23180.78;;;25.56;nan
5296;BME280;2670;42.720;23.336;2022-07-17T08:38:06;-23181.94;;;25.61;nan
5296;BME280;2670;42.720;23.336;2022-07-17T08:40:35;-23187.75;;;25.81;nan
5296;BME280;2670;42.720;23.336;2022-07-17T08:43:03;-23191.25;;;25.93;nan
5296;BME280;2670;42.720;23.336;2022-07-17T08:45:30;-23194.72;;;26.05;nan
5296;BME280;2670;42.720;23.336;2022-07-17T08:47:59;-23193.13;;;26.00;nan
5296;BME280;2670;42.720;23.336;2022-07-17T08:50:28;-23196.31;;;26.11;nan
5296;BME280;2670;42.720;23.336;2022-07-17T08:52:55;-23199.94;;;26.24;nan
5296;BME280;2670;42.720;23.336;2022-07-17T08:55:22;-23202.56;;;26.33;nan
5296;BME280;2670;42.720;23.336;2022-07-17T08:57:49;-23205.19;;;26.42;nan
5296;BME280;2670;42.720;23.336;2022-07-17T09:00:18;-23209.53;;;26.57;nan
5296;BME280;2670;42.720;23.336;2022-07-17T09:02:59;-23210.84;;;26.62;nan
5296;BME280;2670;42.720;23.336;2022-07-17T09:05:28;-23212.28;;;26.67;nan
5296;BME280;2670;42.720;23.336;2022-07-17T09:07:55;-23216.63;;;26.82;nan
5296;BME280;2670;42.720;23.336;2022-07-17T09:10:34;-23217.94;;;26.87;nan
5296;BME280;2670;42.720;23.336;2022-07-17T09:13:12;-23223.59;;;27.07;nan
5296;BME280;2670;42.720;23.336;2022-07-17T09:15:39;-23221.84;;;27.01;nan
5296;BME280;2670;42.720;23.336;2022-07-17T09:18:07;-23221.84;;;27.01;nan
5296;BME280;2670;42.720;23.336;2022-07-17T09:20:34;-23223.75;;;27.07;nan
5296;BME280;2670;42.720;23.336;2022-07-17T09:23:03;-23228.25;;;27.23;nan
5296;BME280;2670;42.720;23.336;2022-07-17T09:25:35;-23231.72;;;27.36;nan
5296;BME280;2670;42.720;23.336;2022-07-17T09:28:04;-23235.19;;;27.48;nan
5296;BME280;2670;42.720;23.336;2022-07-17T09:30:31;-23233.59;;;27.42;nan
5296;BME280;2670;42.720;23.336;2022-07-17T09:32:59;-23236.06;;;27.51;nan
5296;BME280;2670;42.720;23.336;2022-07-17T09:35:27;-23238.53;;;27.60;nan
5296;BME280;2670;42.720;23.336;2022-07-17T09:37:54;-23240.84;;;27.68;nan
5296;BME280;2670;42.720;23.336;2022-07-17T09:40:22;-23242.88;;;27.75;nan
5296;BME280;2670;42.720;23.336;2022-07-17T09:43:07;-23246.78;;;27.89;nan
5296;BME280;2670;42.720;23.336;2022-07-17T09:45:35;-23246.19;;;27.87;nan
5296;BME280;2670;42.720;23.336;2022-07-17T09:48:03;-23247.66;;;27.92;nan
5296;BME280;2670;42.720;23.336;2022-07-17T09:50:31;-23250.41;;;28.01;nan
5296;BME280;2670;42.720;23.336;2022-07-17T09:53:00;-23254.00;;;28.14;nan
5296;BME280;2670;42.720;23.336;2022-07-17T09:55:28;-23254.88;;;28.17;nan
5296;BME280;2670;42.720;23.336;2022-07-17T09:57:58;-23255.88;;;28.21;nan
5296;BME280;2670;42.720;23.336;2022-07-17T10:00:26;-23256.47;;;28.23;nan
5296;BME280;2670;42.720;23.336;2022-07-17T10:02:53;-23258.78;;;28.31;nan
5296;BME280;2670;42.720;23.336;2022-07-17T10:05:20;-23258.66;;;28.30;nan
5296;BME280;2670;42.720;23.336;2022-07-17T10:07:48;-23258.22;;;28.29;nan
5296;BME280;2670;42.720;23.336;2022-07-17T10:10:17;-23260.09;;;28.36;nan
5296;BME280;2670;42.720;23.336;2022-07-17T10:12:47;-23263.72;;;28.48;nan
5296;BME280;2670;42.720;23.336;2022-07-17T10:15:15;-23264.28;;;28.50;nan
5296;BME280;2670;42.720;23.336;2022-07-17T10:17:42;-23262.41;;;28.44;nan
5296;BME280;2670;42.720;23.336;2022-07-17T10:20:10;-23265.16;;;28.53;nan
5296;BME280;2670;42.720;23.336;2022-07-17T10:22:41;-23268.19;;;28.64;nan
5296;BME280;2670;42.720;23.336;2022-07-17T10:25:13;-23271.81;;;28.77;nan
5296;BME280;2670;42.720;23.336;2022-07-17T10:27:46;-23274.69;;;28.87;nan
5296;BME280;2670;42.720;23.336;2022-07-17T10:30:20;-23270.50;;;28.72;nan
5296;BME280;2670;42.720;23.336;2022-07-17T10:32:51;-23275.56;;;28.90;nan
5296;BME280;2670;42.720;23.336;2022-07-17T10:35:18;-23276.56;;;28.94;nan
5296;BME280;2670;42.720;23.336;2022-07-17T10:37:45;-23277.00;;;28.95;nan
5296;BME280;2670;42.720;23.336;2022-07-17T10:40:16;-23280.19;;;29.07;nan
5296;BME280;2670;42.720;23.336;2022-07-17T10:42:51;-23282.66;;;29.15;nan
5296;BME280;2670;42.720;23.336;2022-07-17T10:45:20;-23283.81;;;29.19;nan
5296;BME280;2670;42.720;23.336;2022-07-17T10:47:49;-23287.84;;;29.34;nan
5296;BME280;2670;42.720;23.336;2022-07-17T10:50:17;-23286.84;;;29.30;nan
5296;BME280;2670;42.720;23.336;2022-07-17T10:52:59;-23291.47;;;29.46;nan
5296;BME280;2670;42.720;23.336;2022-07-17T10:55:28;-23265.59;;;28.55;nan
5296;BME280;2670;42.720;23.336;2022-07-17T10:57:55;-23270.94;;;28.74;nan
5296;BME280;2670;42.720;23.336;2022-07-17T11:00:22;-23278.75;;;29.01;nan
5296;BME280;2670;42.720;23.336;2022-07-17T11:02:50;-23272.97;;;28.81;nan
5296;BME280;2670;42.720;23.336;2022-07-17T11:05:17;-23270.22;;;28.71;nan
5296;BME280;2670;42.720;23.336;2022-07-17T11:07:55;-23272.09;;;28.78;nan
5296;BME280;2670;42.720;23.336;2022-07-17T11:10:23;-23272.81;;;28.81;nan
5296;BME280;2670;42.720;23.336;2022-07-17T11:12:52;-23273.41;;;28.83;nan
5296;BME280;2670;42.720;23.336;2022-07-17T11:15:19;-23280.78;;;29.09;nan
5296;BME280;2670;42.720;23.336;2022-07-17T11:17:47;-23283.22;;;29.17;nan
5296;BME280;2670;42.720;23.336;2022-07-17T11:20:15;-23286.56;;;29.29;nan
5296;BME280;2670;42.720;23.336;2022-07-17T11:22:43;-23294.50;;;29.57;nan
5296;BME280;2670;42.720;23.336;2022-07-17T11:25:10;-23289.72;;;29.40;nan
5296;BME280;2670;42.720;23.336;2022-07-17T11:27:37;-23291.16;;;29.45;nan
5296;BME280;2670;42.720;23.336;2022-07-17T11:30:10;-23296.81;;;29.65;nan
5296;BME280;2670;42.720;23.336;2022-07-17T11:32:39;-23296.66;;;29.65;nan
5296;BME280;2670;42.720;23.336;2022-07-17T11:35:14;-23299.97;;;29.76;nan
5296;BME280;2670;42.720;23.336;2022-07-17T11:37:41;-23300.28;;;29.77;nan
5296;BME280;2670;42.720;23.336;2022-07-17T11:40:08;-23299.97;;;29.76;nan
5296;BME280;2670;42.720;23.336;2022-07-17T11:42:35;-23302.88;;;29.87;nan
5296;BME280;2670;42.720;23.336;2022-07-17T11:45:03;-23294.94;;;29.59;nan
5296;BME280;2670;42.720;23.336;2022-07-17T11:47:31;-23291.03;;;29.45;nan
5296;BME280;2670;42.720;23.336;2022-07-17T11:50:06;-23293.34;;;29.53;nan
5296;BME280;2670;42.720;23.336;2022-07-17T11:52:40;-23290.59;;;29.43;nan
5296;BME280;2670;42.720;23.336;2022-07-17T11:55:07;-23288.13;;;29.35;nan
5296;BME280;2670;42.720;23.336;2022-07-17T11:57:42;-23288.00;;;29.34;nan
5296;BME280;2670;42.720;23.336;2022-07-17T12:00:10;-23287.41;;;29.32;nan
5296;BME280;2670;42.720;23.336;2022-07-17T12:02:39;-23282.94;;;29.16;nan
5296;BME280;2670;42.720;23.336;2022-07-17T12:05:06;-23284.38;;;29.21;nan
5296;BME280;2670;42.720;23.336;2022-07-17T12:07:42;-23282.06;;;29.13;nan
5296;BME280;2670;42.720;23.336;2022-07-17T12:10:14;-23281.94;;;29.13;nan
5296;BME280;2670;42.720;23.336;2022-07-17T12:12:51;-23282.94;;;29.16;nan
5296;BME280;2670;42.720;23.336;2022-07-17T12:15:19;-23283.66;;;29.19;nan
5296;BME280;2670;42.720;23.336;2022-07-17T12:17:47;-23280.06;;;29.06;nan
5296;BME280;2670;42.720;23.336;2022-07-17T12:20:14;-23281.34;;;29.11;nan
5296;BME280;2670;42.720;23.336;2022-07-17T12:22:45;-23278.91;;;29.02;nan
5296;BME280;2670;42.720;23.336;2022-07-17T12:25:23;-23273.25;;;28.82;nan
5296;BME280;2670;42.720;23.336;2022-07-17T12:27:50;-23270.38;;;28.72;nan
5296;BME280;2670;42.720;23.336;2022-07-17T12:30:17;-23268.19;;;28.64;nan
5296;BME280;2670;42.720;23.336;2022-07-17T12:32:43;-23270.38;;;28.72;nan
5296;BME280;2670;42.720;23.336;2022-07-17T12:35:11;-23266.59;;;28.59;nan
5296;BME280;2670;42.720;23.336;2022-07-17T12:37:38;-23266.31;;;28.58;nan
5296;BME280;2670;42.720;23.336;2022-07-17T12:40:06;-23264.00;;;28.49;nan
5296;BME280;2670;42.720;23.336;2022-07-17T12:42:34;-23265.00;;;28.53;nan
5296;BME280;2670;42.720;23.336;2022-07-17T12:45:00;-23265.00;;;28.53;nan
5296;BME280;2670;42.720;23.336;2022-07-17T12:47:28;-23261.41;;;28.40;nan
5296;BME280;2670;42.720;23.336;2022-07-17T12:49:54;-23263.72;;;28.48;nan
5296;BME280;2670;42.720;23.336;2022-07-17T12:52:23;-23266.47;;;28.58;nan
5296;BME280;2670;42.720;23.336;2022-07-17T12:54:49;-23265.44;;;28.54;nan
5296;BME280;2670;42.720;23.336;2022-07-17T12:57:16;-23268.34;;;28.65;nan
5296;BME280;2670;42.720;23.336;2022-07-17T12:59:43;-23265.31;;;28.54;nan
5296;BME280;2670;42.720;23.336;2022-07-17T13:02:09;-23261.97;;;28.42;nan
5296;BME280;2670;42.720;23.336;2022-07-17T13:04:37;-23260.09;;;28.36;nan
5296;BME280;2670;42.720;23.336;2022-07-17T13:07:04;-23260.25;;;28.36;nan
5296;BME280;2670;42.720;23.336;2022-07-17T13:09:32;-23262.97;;;28.46;nan
5296;BME280;2670;42.720;23.336;2022-07-17T13:11:58;-23269.50;;;28.69;nan
5296;BME280;2670;42.720;23.336;2022-07-17T13:14:25;-23272.53;;;28.79;nan
5296;BME280;2670;42.720;23.336;2022-07-17T13:16:52;-23272.66;;;28.80;nan
5296;BME280;2670;42.720;23.336;2022-07-17T13:19:18;-23269.34;;;28.68;nan
5296;BME280;2670;42.720;23.336;2022-07-17T13:21:46;-23270.50;;;28.72;nan
5296;BME280;2670;42.720;23.336;2022-07-17T13:24:13;-23271.94;;;28.77;nan
5296;BME280;2670;42.720;23.336;2022-07-17T13:26:41;-23277.44;;;28.97;nan